Time;durP1;ratioP1;P1;durP2;ratioP2;P2;SDS_P1;SDS_P2;PMS_P1;PMS_P2;Temp;Humidity;BMP_temperature;BMP_pressure;BME280_temperature;BME280_humidity;BME280_pressure;Samples;Min_cycle;Max_cycle;Signal;HPM_P1;HPM_P2
2023/07/24 00:02:06;;;;;;;7.88;4.03;;;;;;;;;;5037344;28;20676;-65
2023/07/24 00:04:34;;;;;;;5.63;3.67;;;;;;;;;;5037195;28;20233;-65
2023/07/24 00:07:02;;;;;;;5.60;3.67;;;;;;;;;;5037909;28;20238;-65
2023/07/24 00:09:32;;;;;;;6.28;3.53;;;;;;;;;;5041246;28;20238;-66
2023/07/24 00:11:59;;;;;;;8.13;4.05;;;;;;;;;;5041135;28;20218;-65
2023/07/24 00:14:27;;;;;;;12.93;3.90;;;;;;;;;;5041208;28;20260;-65
2023/07/24 00:16:55;;;;;;;6.40;4.05;;;;;;;;;;5041061;28;20213;-65
2023/07/24 00:19:22;;;;;;;6.93;4.40;;;;;;;;;;5041122;28;20245;-63
2023/07/24 00:21:50;;;;;;;7.65;3.92;;;;;;;;;;5040922;28;20620;-64
2023/07/24 00:24:18;;;;;;;8.02;4.10;;;;;;;;;;5040722;28;20231;-64
2023/07/24 00:26:47;;;;;;;8.52;4.18;;;;;;;;;;5040863;28;20214;-64
2023/07/24 00:29:15;;;;;;;10.90;4.32;;;;;;;;;;5041089;28;20290;-66
2023/07/24 00:31:42;;;;;;;7.65;3.58;;;;;;;;;;5059814;28;20232;-65
2023/07/24 00:34:10;;;;;;;8.07;4.07;;;;;;;;;;5060477;28;20245;-64
2023/07/24 00:36:38;;;;;;;5.95;3.47;;;;;;;;;;5060478;28;20216;-65
2023/07/24 00:39:06;;;;;;;6.10;4.07;;;;;;;;;;5060795;28;20212;-64
2023/07/24 00:41:34;;;;;;;6.85;3.75;;;;;;;;;;5053789;28;20267;-64
2023/07/24 00:44:03;;;;;;;8.18;3.90;;;;;;;;;;5040324;28;20231;-64
2023/07/24 00:46:32;;;;;;;8.90;4.10;;;;;;;;;;5040240;28;20213;-65
2023/07/24 00:49:01;;;;;;;7.75;4.10;;;;;;;;;;5040544;28;20225;-64
2023/07/24 00:51:29;;;;;;;4.97;3.92;;;;;;;;;;5040441;28;20261;-65
2023/07/24 00:53:57;;;;;;;5.93;3.90;;;;;;;;;;5040257;28;20616;-64
2023/07/24 00:56:25;;;;;;;6.95;4.05;;;;;;;;;;5040506;28;20654;-64
2023/07/24 00:58:52;;;;;;;6.32;3.40;;;;;;;;;;5042083;28;20228;-64
2023/07/24 01:01:22;;;;;;;6.25;3.92;;;;;;;;;;5050629;28;20731;-64
2023/07/24 01:03:50;;;;;;;6.20;3.72;;;;;;;;;;5040270;28;20245;-65
2023/07/24 01:06:17;;;;;;;7.45;4.15;;;;;;;;;;5040257;28;20296;-65
2023/07/24 01:08:45;;;;;;;5.78;3.75;;;;;;;;;;5040250;28;20214;-65
2023/07/24 01:11:16;;;;;;;6.55;3.85;;;;;;;;;;5040051;28;20778;-65
2023/07/24 01:13:49;;;;;;;10.52;5.07;;;;;;;;;;5040218;28;20206;-64
2023/07/24 01:16:19;;;;;;;13.30;4.68;;;;;;;;;;5039944;28;20206;-65
2023/07/24 01:18:49;;;;;;;7.32;3.70;;;;;;;;;;5039129;28;20242;-65
2023/07/24 01:21:19;;;;;;;9.93;4.97;;;;;;;;;;5049097;28;20230;-65
2023/07/24 01:23:56;;;;;;;11.73;4.40;;;;;;;;;;5041257;28;20243;-64
2023/07/24 01:26:25;;;;;;;8.17;4.63;;;;;;;;;;5039883;28;20203;-65
2023/07/24 01:28:53;;;;;;;10.37;4.23;;;;;;;;;;5039774;28;20282;-64
2023/07/24 01:31:21;;;;;;;12.63;4.50;;;;;;;;;;5055572;28;20246;-65
2023/07/24 01:33:49;;;;;;;9.07;4.30;;;;;;;;;;5059539;28;20274;-64
2023/07/24 01:36:17;;;;;;;9.37;4.40;;;;;;;;;;5059475;28;20220;-64
2023/07/24 01:38:45;;;;;;;10.83;4.83;;;;;;;;;;5059669;28;20725;-64
2023/07/24 01:41:13;;;;;;;5.37;4.83;;;;;;;;;;5057317;28;20228;-64
2023/07/24 01:43:42;;;;;;;14.77;5.73;;;;;;;;;;5039318;28;20225;-64
2023/07/24 01:46:10;;;;;;;10.33;5.57;;;;;;;;;;5039067;28;20217;-65
2023/07/24 01:48:37;;;;;;;9.53;4.73;;;;;;;;;;5039634;28;20208;-64
2023/07/24 01:51:05;;;;;;;13.03;6.30;;;;;;;;;;5039310;28;20231;-65
2023/07/24 01:53:33;;;;;;;11.10;5.97;;;;;;;;;;5038931;28;20208;-64
2023/07/24 01:56:01;;;;;;;10.40;5.03;;;;;;;;;;5050889;28;20259;-64
2023/07/24 01:58:28;;;;;;;10.83;5.23;;;;;;;;;;5039014;28;20222;-65
2023/07/24 02:00:57;;;;;;;8.33;4.67;;;;;;;;;;5049316;28;20232;-65
2023/07/24 02:03:25;;;;;;;8.03;4.80;;;;;;;;;;5039061;28;20210;-65
2023/07/24 02:05:53;;;;;;;6.90;4.97;;;;;;;;;;5038863;28;20281;-64
2023/07/24 02:08:21;;;;;;;7.80;5.27;;;;;;;;;;5039141;28;20640;-64
2023/07/24 02:10:49;;;;;;;9.57;5.10;;;;;;;;;;5039085;28;20704;-64
2023/07/24 02:13:17;;;;;;;12.80;8.07;;;;;;;;;;5038994;28;20203;-64
2023/07/24 02:15:45;;;;;;;9.90;6.17;;;;;;;;;;5038757;28;20674;-64
2023/07/24 02:18:14;;;;;;;12.97;5.37;;;;;;;;;;5038672;28;20233;-64
2023/07/24 02:20:41;;;;;;;9.33;5.23;;;;;;;;;;5038869;28;20321;-64
2023/07/24 02:23:10;;;;;;;10.03;5.27;;;;;;;;;;5038739;28;20218;-64
2023/07/24 02:25:37;;;;;;;8.10;5.13;;;;;;;;;;5038864;28;20234;-64
2023/07/24 02:28:05;;;;;;;7.80;5.20;;;;;;;;;;5038715;28;20210;-65
2023/07/24 02:30:33;;;;;;;9.80;5.50;;;;;;;;;;5048064;28;20229;-65
2023/07/24 02:33:00;;;;;;;9.70;5.63;;;;;;;;;;5040069;28;20234;-63
2023/07/24 02:35:29;;;;;;;9.50;5.77;;;;;;;;;;5038722;28;20213;-66
2023/07/24 02:37:57;;;;;;;15.17;5.40;;;;;;;;;;5038417;28;20210;-64
2023/07/24 02:40:25;;;;;;;10.47;5.13;;;;;;;;;;5045914;28;20226;-63
2023/07/24 02:42:53;;;;;;;10.40;4.53;;;;;;;;;;5038962;28;20217;-66
2023/07/24 02:45:20;;;;;;;9.87;5.43;;;;;;;;;;5037996;28;20234;-65
2023/07/24 02:47:48;;;;;;;8.23;4.70;;;;;;;;;;5038670;28;20688;-66
2023/07/24 02:50:16;;;;;;;8.87;5.23;;;;;;;;;;5038362;28;20230;-64
2023/07/24 02:52:45;;;;;;;14.50;4.70;;;;;;;;;;5038276;28;20214;-63
2023/07/24 02:55:13;;;;;;;9.97;5.70;;;;;;;;;;5050372;28;20208;-63
2023/07/24 02:57:40;;;;;;;7.40;4.87;;;;;;;;;;5038710;28;20572;-63
2023/07/24 03:00:09;;;;;;;9.87;4.60;;;;;;;;;;5050100;28;20222;-64
2023/07/24 03:02:36;;;;;;;9.43;5.03;;;;;;;;;;5038225;28;20212;-64
2023/07/24 03:05:05;;;;;;;9.10;5.63;;;;;;;;;;5037773;28;20278;-64
2023/07/24 03:07:33;;;;;;;10.73;4.90;;;;;;;;;;5042981;28;20719;-64
2023/07/24 03:10:02;;;;;;;9.50;5.53;;;;;;;;;;5048861;28;20229;-65
2023/07/24 03:12:30;;;;;;;11.60;5.03;;;;;;;;;;5037800;28;20207;-62
2023/07/24 03:14:58;;;;;;;11.97;5.57;;;;;;;;;;5037633;28;20287;-63
2023/07/24 03:17:25;;;;;;;9.63;5.40;;;;;;;;;;5038016;28;20211;-62
2023/07/24 03:19:55;;;;;;;8.33;5.10;;;;;;;;;;5038000;28;20639;-65
2023/07/24 03:22:22;;;;;;;10.30;5.57;;;;;;;;;;5037577;28;20232;-65
2023/07/24 03:24:50;;;;;;;8.00;4.77;;;;;;;;;;5037855;28;20232;-65
2023/07/24 03:27:19;;;;;;;6.03;5.03;;;;;;;;;;5037607;28;20204;-65
2023/07/24 03:29:47;;;;;;;8.87;5.37;;;;;;;;;;5037528;28;20219;-65
2023/07/24 03:32:15;;;;;;;9.33;5.00;;;;;;;;;;5049978;28;20215;-65
2023/07/24 03:34:42;;;;;;;10.80;5.17;;;;;;;;;;5039456;28;20538;-65
2023/07/24 03:37:10;;;;;;;7.80;5.03;;;;;;;;;;5054002;28;20200;-65
2023/07/24 03:39:38;;;;;;;8.63;4.67;;;;;;;;;;5057228;28;20295;-65
2023/07/24 03:42:06;;;;;;;10.40;5.47;;;;;;;;;;5045859;28;20240;-65
2023/07/24 03:44:35;;;;;;;8.63;4.77;;;;;;;;;;5041717;28;20296;-65
2023/07/24 03:47:03;;;;;;;8.23;4.90;;;;;;;;;;5041403;28;20752;-65
2023/07/24 03:49:31;;;;;;;7.17;4.70;;;;;;;;;;5041648;28;20209;-65
2023/07/24 03:51:58;;;;;;;6.40;5.00;;;;;;;;;;5041566;28;20638;-65
2023/07/24 03:54:26;;;;;;;9.27;5.33;;;;;;;;;;5047396;28;20210;-65
2023/07/24 03:56:54;;;;;;;13.57;5.60;;;;;;;;;;5061396;28;20207;-65
2023/07/24 03:59:21;;;;;;;8.73;4.77;;;;;;;;;;5047453;28;20207;-65
2023/07/24 04:01:50;;;;;;;9.03;4.57;;;;;;;;;;5047074;28;20240;-64
2023/07/24 04:04:18;;;;;;;8.63;4.67;;;;;;;;;;5041300;28;20650;-63
2023/07/24 04:06:46;;;;;;;8.47;5.23;;;;;;;;;;5041065;28;20323;-63
2023/07/24 04:09:15;;;;;;;7.50;4.17;;;;;;;;;;5041201;28;20220;-64
2023/07/24 04:11:43;;;;;;;8.13;5.10;;;;;;;;;;5040646;28;20235;-64
2023/07/24 04:14:11;;;;;;;10.77;5.60;;;;;;;;;;5058279;28;20209;-63
2023/07/24 04:16:39;;;;;;;8.63;5.20;;;;;;;;;;5060980;28;20209;-64
2023/07/24 04:19:08;;;;;;;6.90;4.40;;;;;;;;;;5060856;28;20205;-63
2023/07/24 04:21:36;;;;;;;8.10;4.53;;;;;;;;;;5060862;28;20236;-63
2023/07/24 04:24:04;;;;;;;9.00;4.77;;;;;;;;;;5060827;28;20608;-63
2023/07/24 04:26:32;;;;;;;8.33;4.33;;;;;;;;;;5060829;28;20232;-64
2023/07/24 04:29:02;;;;;;;8.07;4.50;;;;;;;;;;5061160;28;20260;-64
2023/07/24 04:31:30;;;;;;;9.00;4.80;;;;;;;;;;5059313;28;20233;-64
2023/07/24 04:33:58;;;;;;;6.27;4.50;;;;;;;;;;5040683;28;20322;-63
2023/07/24 04:36:27;;;;;;;7.33;5.03;;;;;;;;;;5040760;28;20214;-64
2023/07/24 04:38:55;;;;;;;9.73;4.47;;;;;;;;;;5040902;28;20211;-63
2023/07/24 04:41:23;;;;;;;8.70;5.23;;;;;;;;;;5053591;28;20234;-63
2023/07/24 04:43:50;;;;;;;12.37;5.20;;;;;;;;;;5040872;28;20222;-63
2023/07/24 04:46:18;;;;;;;7.60;4.27;;;;;;;;;;5040406;28;20250;-64
2023/07/24 04:48:46;;;;;;;9.73;4.63;;;;;;;;;;5040491;28;20269;-63
2023/07/24 04:51:15;;;;;;;6.67;4.33;;;;;;;;;;5040179;28;20320;-63
2023/07/24 04:53:44;;;;;;;7.10;4.13;;;;;;;;;;5040430;28;20207;-63
2023/07/24 04:56:12;;;;;;;9.43;4.83;;;;;;;;;;5040287;28;20549;-64
2023/07/24 04:58:40;;;;;;;7.93;4.80;;;;;;;;;;5040453;28;20298;-64
2023/07/24 05:01:07;;;;;;;9.47;4.70;;;;;;;;;;5052988;28;20314;-62
2023/07/24 05:03:35;;;;;;;7.87;4.50;;;;;;;;;;5040303;28;20219;-62
2023/07/24 05:06:03;;;;;;;7.07;4.70;;;;;;;;;;5040244;28;20234;-62
2023/07/24 05:08:30;;;;;;;9.67;5.07;;;;;;;;;;5040004;28;20220;-62
2023/07/24 05:11:00;;;;;;;9.20;4.80;;;;;;;;;;5039931;28;20232;-62
2023/07/24 05:13:27;;;;;;;12.27;5.70;;;;;;;;;;5039907;28;20215;-62
2023/07/24 05:15:55;;;;;;;5.83;4.53;;;;;;;;;;5039953;28;20315;-62
2023/07/24 05:18:23;;;;;;;7.47;4.57;;;;;;;;;;5040106;28;20239;-62
2023/07/24 05:20:52;;;;;;;7.83;5.00;;;;;;;;;;5040041;28;20233;-61
2023/07/24 05:23:19;;;;;;;9.40;4.60;;;;;;;;;;5039986;28;20210;-62
2023/07/24 05:25:47;;;;;;;9.13;5.00;;;;;;;;;;5039948;28;20238;-62
2023/07/24 05:28:16;;;;;;;10.17;5.37;;;;;;;;;;5039750;28;20328;-62
2023/07/24 05:30:44;;;;;;;11.57;4.57;;;;;;;;;;5043592;28;20230;-62
2023/07/24 05:33:12;;;;;;;9.77;5.27;;;;;;;;;;5042334;28;20241;-62
2023/07/24 05:35:39;;;;;;;6.37;4.10;;;;;;;;;;5039775;28;20226;-62
2023/07/24 05:38:07;;;;;;;10.50;5.40;;;;;;;;;;5039617;28;20677;-62
2023/07/24 05:40:35;;;;;;;9.27;4.93;;;;;;;;;;5048164;28;20226;-62
2023/07/24 05:43:03;;;;;;;7.53;6.00;;;;;;;;;;5041899;28;20213;-62
2023/07/24 05:45:33;;;;;;;7.57;4.43;;;;;;;;;;5039407;28;20207;-62
2023/07/24 05:48:00;;;;;;;7.80;5.13;;;;;;;;;;5039413;28;20223;-62
2023/07/24 05:50:28;;;;;;;7.07;4.37;;;;;;;;;;5039449;28;20305;-62
2023/07/24 05:52:56;;;;;;;10.13;5.30;;;;;;;;;;5039086;28;20587;-62
2023/07/24 05:55:24;;;;;;;7.90;4.83;;;;;;;;;;5052794;28;20203;-61
2023/07/24 05:57:51;;;;;;;6.70;4.60;;;;;;;;;;5039368;28;20314;-62
2023/07/24 06:00:19;;;;;;;6.87;5.17;;;;;;;;;;5051977;28;20608;-62
2023/07/24 06:02:48;;;;;;;7.07;4.60;;;;;;;;;;5039007;28;20217;-62
2023/07/24 06:05:16;;;;;;;10.13;5.23;;;;;;;;;;5038475;28;20212;-62
2023/07/24 06:07:44;;;;;;;7.27;4.87;;;;;;;;;;5039011;28;20238;-62
2023/07/24 06:10:12;;;;;;;11.40;5.07;;;;;;;;;;5038649;28;20594;-62
2023/07/24 06:12:40;;;;;;;6.77;4.93;;;;;;;;;;5038507;28;20215;-62
2023/07/24 06:15:08;;;;;;;6.43;4.97;;;;;;;;;;5050936;28;20268;-62
2023/07/24 06:17:35;;;;;;;10.60;5.07;;;;;;;;;;5038947;28;20212;-62
2023/07/24 06:20:05;;;;;;;11.43;5.63;;;;;;;;;;5038901;28;20226;-62
2023/07/24 06:22:33;;;;;;;7.77;4.77;;;;;;;;;;5038737;28;20212;-62
2023/07/24 06:25:01;;;;;;;7.17;4.63;;;;;;;;;;5038501;28;20256;-62
2023/07/24 06:27:29;;;;;;;11.17;5.53;;;;;;;;;;5038595;28;20278;-62
2023/07/24 06:29:56;;;;;;;9.33;5.47;;;;;;;;;;5038191;28;20240;-62
2023/07/24 06:32:41;;;;;;;9.27;5.33;;;;;;;;;;5038315;28;20288;-62
2023/07/24 06:35:11;;;;;;;8.80;5.90;;;;;;;;;;5038613;28;20271;-62
2023/07/24 06:37:38;;;;;;;11.00;5.73;;;;;;;;;;5038369;28;20207;-61
2023/07/24 06:40:07;;;;;;;8.23;4.97;;;;;;;;;;5043029;28;20225;-63
2023/07/24 06:42:35;;;;;;;8.83;5.37;;;;;;;;;;5038587;28;20241;-62
2023/07/24 06:45:02;;;;;;;10.93;5.33;;;;;;;;;;5038183;28;20214;-62
2023/07/24 06:47:33;;;;;;;10.60;5.43;;;;;;;;;;5046298;28;20309;-62
2023/07/24 06:50:02;;;;;;;8.87;5.30;;;;;;;;;;5042303;28;20273;-62
2023/07/24 06:52:31;;;;;;;8.40;5.40;;;;;;;;;;5038320;28;20212;-62
2023/07/24 06:54:59;;;;;;;10.30;5.77;;;;;;;;;;5048530;28;20200;-63
2023/07/24 06:57:27;;;;;;;9.37;4.73;;;;;;;;;;5048109;28;20211;-63
2023/07/24 06:59:55;;;;;;;11.73;5.47;;;;;;;;;;5044362;28;20234;-63
2023/07/24 07:02:22;;;;;;;8.33;5.60;;;;;;;;;;5038239;28;20208;-63
2023/07/24 07:04:50;;;;;;;6.60;5.07;;;;;;;;;;5038291;28;20240;-63
2023/07/24 07:07:18;;;;;;;7.17;5.10;;;;;;;;;;5038015;28;20718;-63
2023/07/24 07:09:47;;;;;;;9.67;5.73;;;;;;;;;;5037863;28;20209;-61
2023/07/24 07:12:15;;;;;;;7.60;4.93;;;;;;;;;;5037977;28;20636;-62
2023/07/24 07:14:42;;;;;;;15.43;6.30;;;;;;;;;;5037521;28;20278;-62
2023/07/24 07:17:10;;;;;;;10.13;5.37;;;;;;;;;;5049785;28;20206;-63
2023/07/24 07:19:38;;;;;;;14.87;5.63;;;;;;;;;;5046467;28;20217;-62
2023/07/24 07:22:06;;;;;;;11.30;5.93;;;;;;;;;;5040946;28;20232;-63
2023/07/24 07:24:34;;;;;;;6.53;4.63;;;;;;;;;;5037841;28;20296;-63
2023/07/24 07:27:03;;;;;;;10.27;5.20;;;;;;;;;;5037695;28;20573;-63
2023/07/24 07:29:31;;;;;;;10.03;5.83;;;;;;;;;;5037382;28;20224;-63
2023/07/24 07:31:59;;;;;;;7.03;5.00;;;;;;;;;;5045889;28;20205;-63
2023/07/24 07:34:27;;;;;;;7.57;5.27;;;;;;;;;;5046760;28;20227;-63
2023/07/24 07:36:55;;;;;;;11.37;5.10;;;;;;;;;;5037528;28;20664;-63
2023/07/24 07:39:22;;;;;;;7.50;5.13;;;;;;;;;;5036842;28;20299;-63
2023/07/24 07:41:50;;;;;;;8.97;5.53;;;;;;;;;;5048707;28;20226;-63
2023/07/24 07:44:35;;;;;;;8.37;5.23;;;;;;;;;;5037232;28;20221;-63
2023/07/24 07:47:03;;;;;;;9.10;5.60;;;;;;;;;;5037460;28;20221;-63
2023/07/24 07:49:31;;;;;;;11.93;5.83;;;;;;;;;;5037044;28;20220;-63
2023/07/24 07:51:59;;;;;;;8.83;4.90;;;;;;;;;;5037373;28;20208;-63
2023/07/24 07:54:27;;;;;;;12.80;5.53;;;;;;;;;;5043131;28;20207;-61
2023/07/24 07:56:55;;;;;;;13.17;6.40;;;;;;;;;;5044417;28;20205;-63
2023/07/24 07:59:23;;;;;;;11.80;5.27;;;;;;;;;;5043352;28;20212;-63
2023/07/24 08:01:52;;;;;;;13.27;5.70;;;;;;;;;;5043578;28;20233;-63
2023/07/24 08:04:20;;;;;;;11.00;5.87;;;;;;;;;;5037279;28;20214;-63
2023/07/24 08:06:47;;;;;;;9.97;6.20;;;;;;;;;;5037168;28;20215;-63
2023/07/24 08:09:17;;;;;;;10.20;5.93;;;;;;;;;;5037347;28;20211;-63
2023/07/24 08:11:45;;;;;;;8.93;6.03;;;;;;;;;;5052977;28;20234;-63
2023/07/24 08:14:12;;;;;;;9.00;6.10;;;;;;;;;;5057085;28;20209;-63
2023/07/24 08:16:40;;;;;;;10.23;5.57;;;;;;;;;;5054420;28;20212;-63
2023/07/24 08:19:09;;;;;;;11.57;6.37;;;;;;;;;;5037384;28;20209;-63
2023/07/24 08:21:38;;;;;;;7.83;5.80;;;;;;;;;;5037092;28;20230;-63
2023/07/24 08:24:06;;;;;;;8.80;5.43;;;;;;;;;;5037378;28;20652;-63
2023/07/24 08:26:34;;;;;;;13.27;6.10;;;;;;;;;;5036632;28;20645;-63
2023/07/24 08:29:02;;;;;;;8.63;6.27;;;;;;;;;;5039129;28;20240;-63
2023/07/24 08:31:30;;;;;;;10.27;6.17;;;;;;;;;;5046788;28;20779;-63
2023/07/24 08:33:58;;;;;;;10.70;6.63;;;;;;;;;;5040551;28;20711;-63
2023/07/24 08:36:27;;;;;;;8.70;5.63;;;;;;;;;;5040735;28;20203;-63
2023/07/24 08:38:55;;;;;;;9.03;5.83;;;;;;;;;;5040689;28;20295;-63
2023/07/24 08:41:23;;;;;;;9.63;6.63;;;;;;;;;;5053194;28;20217;-63
2023/07/24 08:43:51;;;;;;;10.07;6.17;;;;;;;;;;5060229;28;20203;-63
2023/07/24 08:46:20;;;;;;;10.77;6.13;;;;;;;;;;5060458;28;20653;-63
2023/07/24 08:48:48;;;;;;;12.50;6.57;;;;;;;;;;5060565;28;20230;-63
2023/07/24 08:51:18;;;;;;;9.40;6.37;;;;;;;;;;5060361;28;20232;-63
2023/07/24 08:53:48;;;;;;;13.40;6.73;;;;;;;;;;5060233;28;20241;-63
2023/07/24 08:56:15;;;;;;;13.30;6.57;;;;;;;;;;5040533;28;20218;-63
2023/07/24 08:58:43;;;;;;;9.93;6.60;;;;;;;;;;5040890;28;20747;-63
2023/07/24 09:01:11;;;;;;;9.37;6.40;;;;;;;;;;5051828;28;20270;-63
2023/07/24 09:03:39;;;;;;;12.83;6.97;;;;;;;;;;5040297;28;20697;-63
2023/07/24 09:06:07;;;;;;;13.87;6.60;;;;;;;;;;5040006;28;20209;-63
2023/07/24 09:08:36;;;;;;;13.17;7.57;;;;;;;;;;5040231;28;20281;-63
2023/07/24 09:11:06;;;;;;;10.93;6.87;;;;;;;;;;5040154;28;20236;-63
2023/07/24 09:13:36;;;;;;;15.27;7.87;;;;;;;;;;5039888;28;20667;-63
2023/07/24 09:16:03;;;;;;;13.60;7.50;;;;;;;;;;5039959;28;20545;-63
2023/07/24 09:18:39;;;;;;;11.93;7.10;;;;;;;;;;5039888;28;20868;-63
2023/07/24 09:21:08;;;;;;;12.67;6.50;;;;;;;;;;5039672;28;20312;-63
2023/07/24 09:23:35;;;;;;;8.70;6.40;;;;;;;;;;5039971;28;20210;-63
2023/07/24 09:26:07;;;;;;;29.27;9.93;;;;;;;;;;5040040;28;20212;-63
2023/07/24 09:28:35;;;;;;;14.73;6.77;;;;;;;;;;5039627;28;20597;-63
2023/07/24 09:31:04;;;;;;;14.80;6.60;;;;;;;;;;5046191;28;20230;-63
2023/07/24 09:33:36;;;;;;;16.90;6.60;;;;;;;;;;5059580;28;20266;-63
2023/07/24 09:36:04;;;;;;;13.00;6.20;;;;;;;;;;5059360;28;20205;-63
2023/07/24 09:38:32;;;;;;;10.60;6.37;;;;;;;;;;5059453;28;20204;-63
2023/07/24 09:41:02;;;;;;;12.17;6.07;;;;;;;;;;5056473;28;20307;-63
2023/07/24 09:43:31;;;;;;;9.07;5.57;;;;;;;;;;5052646;28;20273;-63
2023/07/24 09:46:02;;;;;;;12.23;6.23;;;;;;;;;;5039491;28;20218;-63
2023/07/24 09:48:29;;;;;;;13.53;6.23;;;;;;;;;;5039486;28;20319;-63
2023/07/24 09:51:00;;;;;;;10.43;5.70;;;;;;;;;;5039426;28;20235;-63
2023/07/24 09:53:32;;;;;;;9.77;5.63;;;;;;;;;;5039439;28;20207;-63
2023/07/24 09:56:01;;;;;;;10.87;5.37;;;;;;;;;;5039436;28;20220;-63
2023/07/24 09:58:32;;;;;;;8.45;5.45;;;;;;;;;;5039445;28;20274;-63
2023/07/24 10:00:59;;;;;;;8.43;5.53;;;;;;;;;;5043396;28;20230;-63
2023/07/24 10:03:27;;;;;;;11.82;6.20;;;;;;;;;;5039162;28;20207;-63
2023/07/24 10:05:55;;;;;;;6.95;5.35;;;;;;;;;;5039059;28;20212;-63
2023/07/24 10:08:23;;;;;;;10.85;5.68;;;;;;;;;;5039128;28;20237;-64
2023/07/24 10:10:53;;;;;;;12.00;6.10;;;;;;;;;;5038865;28;20246;-63
2023/07/24 10:13:21;;;;;;;12.90;6.23;;;;;;;;;;5039133;28;20204;-63
2023/07/24 10:15:50;;;;;;;10.57;6.00;;;;;;;;;;5038572;28;20578;-63
2023/07/24 10:18:19;;;;;;;18.20;6.67;;;;;;;;;;5038880;28;20205;-63
2023/07/24 10:20:47;;;;;;;10.13;6.20;;;;;;;;;;5038830;28;20241;-63
2023/07/24 10:23:17;;;;;;;9.30;6.03;;;;;;;;;;5038978;28;20212;-63
2023/07/24 10:25:46;;;;;;;8.90;6.00;;;;;;;;;;5038874;28;20212;-63
2023/07/24 10:28:16;;;;;;;7.17;6.30;;;;;;;;;;5038493;28;20258;-63
2023/07/24 10:30:44;;;;;;;7.57;5.47;;;;;;;;;;5042153;28;20572;-63
2023/07/24 10:33:14;;;;;;;10.10;6.00;;;;;;;;;;5058514;28;20235;-63
2023/07/24 10:35:43;;;;;;;10.00;5.77;;;;;;;;;;5038616;28;20230;-63
2023/07/24 10:38:10;;;;;;;10.93;5.53;;;;;;;;;;5038516;28;20295;-63
2023/07/24 10:40:40;;;;;;;15.37;5.93;;;;;;;;;;5040167;28;20229;-63
2023/07/24 10:43:08;;;;;;;8.00;5.33;;;;;;;;;;5050443;28;20700;-63
2023/07/24 10:45:39;;;;;;;11.43;5.53;;;;;;;;;;5038406;28;20206;-63
2023/07/24 10:48:11;;;;;;;10.83;5.97;;;;;;;;;;5038338;28;20213;-63
2023/07/24 10:50:40;;;;;;;9.80;5.73;;;;;;;;;;5038354;28;20252;-63
2023/07/24 10:53:09;;;;;;;7.67;5.47;;;;;;;;;;5038214;28;20249;-63
2023/07/24 10:55:36;;;;;;;11.80;5.50;;;;;;;;;;5038369;28;20293;-63
2023/07/24 10:58:04;;;;;;;10.97;5.40;;;;;;;;;;5038284;28;20207;-63
2023/07/24 11:00:32;;;;;;;12.47;5.67;;;;;;;;;;5044345;28;20219;-63
2023/07/24 11:03:00;;;;;;;10.57;5.73;;;;;;;;;;5038532;28;20299;-63
2023/07/24 11:05:28;;;;;;;8.63;5.60;;;;;;;;;;5038405;28;20217;-63
2023/07/24 11:07:57;;;;;;;8.83;5.10;;;;;;;;;;5038024;28;20208;-63
2023/07/24 11:10:25;;;;;;;10.63;7.20;;;;;;;;;;5038083;28;20325;-63
2023/07/24 11:12:53;;;;;;;9.73;6.47;;;;;;;;;;5041152;28;20235;-63
2023/07/24 11:15:25;;;;;;;16.93;7.00;;;;;;;;;;5046639;28;20306;-62
2023/07/24 11:17:52;;;;;;;8.80;6.47;;;;;;;;;;5038012;28;20212;-63
2023/07/24 11:20:20;;;;;;;11.37;6.60;;;;;;;;;;5037992;28;20224;-63
2023/07/24 11:22:48;;;;;;;8.67;5.77;;;;;;;;;;5037723;28;20234;-63
2023/07/24 11:25:17;;;;;;;11.83;7.20;;;;;;;;;;5037881;28;20251;-63
2023/07/24 11:27:47;;;;;;;9.47;6.00;;;;;;;;;;5037878;28;20217;-63
2023/07/24 11:30:20;;;;;;;14.13;5.87;;;;;;;;;;5037221;28;20232;-63
2023/07/24 11:32:48;;;;;;;8.37;6.20;;;;;;;;;;5051436;28;20233;-63
2023/07/24 11:35:16;;;;;;;8.50;5.63;;;;;;;;;;5057462;28;20282;-63
2023/07/24 11:37:43;;;;;;;7.30;5.27;;;;;;;;;;5057597;28;20215;-63
2023/07/24 11:40:14;;;;;;;11.30;5.77;;;;;;;;;;5057590;28;20302;-61
2023/07/24 11:42:45;;;;;;;8.17;4.80;;;;;;;;;;5050030;28;20208;-62
2023/07/24 11:45:12;;;;;;;8.23;4.23;;;;;;;;;;5043814;28;20208;-63
2023/07/24 11:47:44;;;;;;;8.10;4.57;;;;;;;;;;5035774;28;20209;-61
2023/07/24 11:50:12;;;;;;;6.63;4.43;;;;;;;;;;5035774;28;20233;-62
2023/07/24 11:52:43;;;;;;;5.07;4.40;;;;;;;;;;5035414;28;20299;-63
2023/07/24 11:55:11;;;;;;;6.70;3.87;;;;;;;;;;5045550;28;20213;-63
2023/07/24 11:57:39;;;;;;;6.47;4.50;;;;;;;;;;5057588;28;20208;-63
2023/07/24 12:00:23;;;;;;;10.67;4.40;;;;;;;;;;5045288;28;20224;-63
2023/07/24 12:02:51;;;;;;;8.70;5.53;;;;;;;;;;5037874;28;20269;-63
2023/07/24 12:05:19;;;;;;;10.10;5.30;;;;;;;;;;5041280;28;20302;-63
2023/07/24 12:07:47;;;;;;;10.23;4.00;;;;;;;;;;5041456;28;20213;-63
2023/07/24 12:10:26;;;;;;;10.50;4.60;;;;;;;;;;5041019;28;20761;-65
2023/07/24 12:12:55;;;;;;;9.03;4.07;;;;;;;;;;5041450;28;20208;-67
2023/07/24 12:15:24;;;;;;;6.07;3.30;;;;;;;;;;5041128;28;20211;-65
2023/07/24 12:17:52;;;;;;;4.30;3.07;;;;;;;;;;5041318;28;20208;-64
2023/07/24 12:20:20;;;;;;;5.33;3.17;;;;;;;;;;5041152;28;20231;-64
2023/07/24 12:22:47;;;;;;;7.33;3.20;;;;;;;;;;5041107;28;20217;-64
2023/07/24 12:25:16;;;;;;;6.40;3.67;;;;;;;;;;5041183;28;20218;-64
2023/07/24 12:27:43;;;;;;;5.73;3.53;;;;;;;;;;5041139;28;20209;-64
2023/07/24 12:30:11;;;;;;;6.10;3.67;;;;;;;;;;5040450;28;20239;-64
2023/07/24 12:32:40;;;;;;;4.03;3.60;;;;;;;;;;5047851;28;20254;-64
2023/07/24 12:35:09;;;;;;;5.53;3.37;;;;;;;;;;5041093;28;20217;-64
2023/07/24 12:37:38;;;;;;;5.63;3.60;;;;;;;;;;5040565;28;20571;-64
2023/07/24 12:40:07;;;;;;;5.10;3.40;;;;;;;;;;5045648;28;20299;-64
2023/07/24 12:42:35;;;;;;;4.77;3.53;;;;;;;;;;5056738;28;20285;-64
2023/07/24 12:45:03;;;;;;;3.83;2.97;;;;;;;;;;5043309;28;20217;-64
2023/07/24 12:47:31;;;;;;;5.70;3.70;;;;;;;;;;5040795;28;20214;-64
2023/07/24 12:50:01;;;;;;;7.97;3.77;;;;;;;;;;5040604;28;20239;-64
2023/07/24 12:52:31;;;;;;;7.37;4.03;;;;;;;;;;5040441;28;20234;-64
2023/07/24 12:54:58;;;;;;;8.70;4.60;;;;;;;;;;5040118;28;20298;-64
2023/07/24 12:57:29;;;;;;;7.97;4.87;;;;;;;;;;5040388;28;20214;-64
2023/07/24 12:59:57;;;;;;;6.20;4.03;;;;;;;;;;5043893;28;20633;-64
2023/07/24 13:02:25;;;;;;;8.97;4.33;;;;;;;;;;5040205;28;20217;-63
2023/07/24 13:04:53;;;;;;;5.27;4.30;;;;;;;;;;5039938;28;20302;-62
2023/07/24 13:07:22;;;;;;;7.83;4.50;;;;;;;;;;5039758;28;20212;-62
2023/07/24 13:09:50;;;;;;;7.87;4.70;;;;;;;;;;5039744;28;20234;-64
2023/07/24 13:12:17;;;;;;;6.63;4.90;;;;;;;;;;5039794;28;20212;-63
2023/07/24 13:14:45;;;;;;;8.13;4.73;;;;;;;;;;5039492;28;20208;-64
2023/07/24 13:17:13;;;;;;;6.80;6.10;;;;;;;;;;5040001;28;20207;-63
2023/07/24 13:19:41;;;;;;;11.23;5.80;;;;;;;;;;5040059;28;20211;-64
2023/07/24 13:22:08;;;;;;;7.73;5.17;;;;;;;;;;5040086;28;20214;-64
2023/07/24 13:24:38;;;;;;;13.77;5.60;;;;;;;;;;5040136;28;20279;-64
2023/07/24 13:27:06;;;;;;;8.80;5.70;;;;;;;;;;5039734;28;20211;-64
2023/07/24 13:29:34;;;;;;;13.00;5.63;;;;;;;;;;5039295;28;20211;-64
2023/07/24 13:32:01;;;;;;;7.37;5.07;;;;;;;;;;5054525;28;20238;-63
2023/07/24 13:34:29;;;;;;;7.00;4.83;;;;;;;;;;5059295;28;20302;-64
2023/07/24 13:36:57;;;;;;;7.73;4.87;;;;;;;;;;5059449;28;20615;-64
2023/07/24 13:39:27;;;;;;;8.20;5.63;;;;;;;;;;5059472;28;20299;-64
2023/07/24 13:41:56;;;;;;;6.97;5.00;;;;;;;;;;5045487;28;20212;-63
2023/07/24 13:44:23;;;;;;;13.07;5.20;;;;;;;;;;5047831;28;20658;-63
2023/07/24 13:46:51;;;;;;;8.93;4.97;;;;;;;;;;5039397;28;20213;-63
2023/07/24 13:49:19;;;;;;;6.87;4.67;;;;;;;;;;5039611;28;20213;-63
2023/07/24 13:51:47;;;;;;;7.73;5.33;;;;;;;;;;5039248;28;20240;-64
2023/07/24 13:54:14;;;;;;;11.73;5.33;;;;;;;;;;5039476;28;20237;-63
2023/07/24 13:56:42;;;;;;;8.03;5.40;;;;;;;;;;5050167;28;20206;-63
2023/07/24 13:59:11;;;;;;;8.60;5.10;;;;;;;;;;5043313;28;20212;-63
2023/07/24 14:01:39;;;;;;;6.87;4.80;;;;;;;;;;5040783;28;20597;-64
2023/07/24 14:04:07;;;;;;;9.77;4.83;;;;;;;;;;5039513;28;20215;-63
2023/07/24 14:06:34;;;;;;;6.97;4.40;;;;;;;;;;5038960;28;20222;-64
2023/07/24 14:09:03;;;;;;;7.57;4.47;;;;;;;;;;5039419;28;20235;-63
2023/07/24 14:11:30;;;;;;;8.03;4.63;;;;;;;;;;5038623;28;20231;-63
2023/07/24 14:13:59;;;;;;;7.37;4.37;;;;;;;;;;5039104;28;20204;-64
2023/07/24 14:16:28;;;;;;;9.33;4.73;;;;;;;;;;5038870;28;20214;-63
2023/07/24 14:18:56;;;;;;;9.20;5.37;;;;;;;;;;5039099;28;20211;-63
2023/07/24 14:21:23;;;;;;;7.73;5.43;;;;;;;;;;5038815;28;20318;-63
2023/07/24 14:23:51;;;;;;;7.47;4.90;;;;;;;;;;5038849;28;20274;-63
2023/07/24 14:26:19;;;;;;;6.60;4.97;;;;;;;;;;5038464;28;20207;-63
2023/07/24 14:28:47;;;;;;;7.27;5.90;;;;;;;;;;5038597;28;20207;-63
2023/07/24 14:31:14;;;;;;;8.30;5.20;;;;;;;;;;5046507;28;20252;-63
2023/07/24 14:33:43;;;;;;;8.90;5.53;;;;;;;;;;5042777;28;20334;-64
2023/07/24 14:36:11;;;;;;;9.90;5.67;;;;;;;;;;5038266;28;20717;-63
2023/07/24 14:38:39;;;;;;;6.83;5.00;;;;;;;;;;5038343;28;20663;-64
2023/07/24 14:41:07;;;;;;;7.73;5.93;;;;;;;;;;5042324;28;20228;-64
2023/07/24 14:43:34;;;;;;;7.97;5.43;;;;;;;;;;5051632;28;20631;-63
2023/07/24 14:46:02;;;;;;;8.37;5.90;;;;;;;;;;5038350;28;20213;-63